sensor_id;sensor_type;location;lat;lon;timestamp;pressure;altitude;pressure_sealevel;temperature;humidity
7178;BME280;3630;42.146;24.756;2023-02-04T00:00:11;99426.19;;;6.27;43.68
7178;BME280;3630;42.146;24.756;2023-02-04T00:02:38;99425.50;;;6.31;43.28
7178;BME280;3630;42.146;24.756;2023-02-04T00:05:06;99424.53;;;6.27;44.28
7178;BME280;3630;42.146;24.756;2023-02-04T00:07:33;99427.97;;;6.29;44.40
7178;BME280;3630;42.146;24.756;2023-02-04T00:10:00;99418.75;;;6.33;43.84
7178;BME280;3630;42.146;24.756;2023-02-04T00:12:28;99413.50;;;6.28;44.29
7178;BME280;3630;42.146;24.756;2023-02-04T00:14:55;99408.31;;;6.25;43.72
7178;BME280;3630;42.146;24.756;2023-02-04T00:17:22;99386.50;;;6.08;44.63
7178;BME280;3630;42.146;24.756;2023-02-04T00:19:49;99408.22;;;6.22;44.75
7178;BME280;3630;42.146;24.756;2023-02-04T00:22:15;99400.34;;;6.16;44.54
7178;BME280;3630;42.146;24.756;2023-02-04T00:24:42;99400.34;;;6.16;44.26
7178;BME280;3630;42.146;24.756;2023-02-04T00:27:14;99398.69;;;6.17;44.98
7178;BME280;3630;42.146;24.756;2023-02-04T00:29:43;99397.94;;;6.21;45.13
7178;BME280;3630;42.146;24.756;2023-02-04T00:32:09;99398.88;;;6.23;44.81
7178;BME280;3630;42.146;24.756;2023-02-04T00:34:36;99393.97;;;6.29;44.33
7178;BME280;3630;42.146;24.756;2023-02-04T00:37:03;99385.44;;;6.28;43.42
7178;BME280;3630;42.146;24.756;2023-02-04T00:39:30;99392.13;;;6.25;43.59
7178;BME280;3630;42.146;24.756;2023-02-04T00:41:57;99393.88;;;6.26;43.60
7178;BME280;3630;42.146;24.756;2023-02-04T00:44:23;99397.25;;;6.26;43.78
7178;BME280;3630;42.146;24.756;2023-02-04T00:46:52;99389.56;;;6.25;44.37
7178;BME280;3630;42.146;24.756;2023-02-04T00:49:18;99386.31;;;6.29;44.37
7178;BME280;3630;42.146;24.756;2023-02-04T00:51:45;99381.97;;;6.26;44.13
7178;BME280;3630;42.146;24.756;2023-02-04T00:54:12;99387.91;;;6.25;43.94
7178;BME280;3630;42.146;24.756;2023-02-04T00:56:40;99376.81;;;6.25;43.91
7178;BME280;3630;42.146;24.756;2023-02-04T00:59:07;99373.38;;;6.23;44.16
7178;BME280;3630;42.146;24.756;2023-02-04T01:01:34;99373.50;;;6.27;44.33
7178;BME280;3630;42.146;24.756;2023-02-04T01:04:03;99335.56;;;6.10;43.83
7178;BME280;3630;42.146;24.756;2023-02-04T01:06:30;99365.97;;;6.32;44.18
7178;BME280;3630;42.146;24.756;2023-02-04T01:08:57;99350.59;;;6.29;43.98
7178;BME280;3630;42.146;24.756;2023-02-04T01:11:23;99342.06;;;6.28;43.59
7178;BME280;3630;42.146;24.756;2023-02-04T01:13:50;99349.00;;;6.32;43.75
7178;BME280;3630;42.146;24.756;2023-02-04T01:16:17;99321.59;;;6.27;44.03
7178;BME280;3630;42.146;24.756;2023-02-04T01:18:44;99326.22;;;6.38;43.17
7178;BME280;3630;42.146;24.756;2023-02-04T01:21:12;99236.38;;;5.90;43.04
7178;BME280;3630;42.146;24.756;2023-02-04T01:23:39;99303.25;;;6.38;43.31
7178;BME280;3630;42.146;24.756;2023-02-04T01:26:06;99305.25;;;6.48;42.89
7178;BME280;3630;42.146;24.756;2023-02-04T01:28:33;99302.94;;;6.56;43.40
7178;BME280;3630;42.146;24.756;2023-02-04T01:30:59;99291.19;;;6.63;43.06
7178;BME280;3630;42.146;24.756;2023-02-04T01:33:26;99266.59;;;6.65;43.26
7178;BME280;3630;42.146;24.756;2023-02-04T01:35:53;99273.09;;;6.85;42.95
7178;BME280;3630;42.146;24.756;2023-02-04T01:38:21;99259.47;;;6.84;43.17
7178;BME280;3630;42.146;24.756;2023-02-04T01:40:48;99136.94;;;6.20;43.50
7178;BME280;3630;42.146;24.756;2023-02-04T01:43:15;99244.00;;;6.78;43.85
7178;BME280;3630;42.146;24.756;2023-02-04T01:45:43;99245.69;;;6.78;43.57
7178;BME280;3630;42.146;24.756;2023-02-04T01:48:09;99255.19;;;6.83;43.80
7178;BME280;3630;42.146;24.756;2023-02-04T01:50:37;99246.41;;;6.74;44.00
7178;BME280;3630;42.146;24.756;2023-02-04T01:53:04;99243.84;;;6.74;43.75
7178;BME280;3630;42.146;24.756;2023-02-04T01:55:33;99244.75;;;6.76;43.39
7178;BME280;3630;42.146;24.756;2023-02-04T01:58:00;99245.63;;;6.76;43.51
7178;BME280;3630;42.146;24.756;2023-02-04T02:00:30;99235.47;;;6.78;43.47
7178;BME280;3630;42.146;24.756;2023-02-04T02:02:58;99232.56;;;6.66;43.65
7178;BME280;3630;42.146;24.756;2023-02-04T02:05:27;99231.69;;;6.65;44.38
7178;BME280;3630;42.146;24.756;2023-02-04T02:07:57;99229.94;;;6.63;45.06
7178;BME280;3630;42.146;24.756;2023-02-04T02:10:26;99218.03;;;6.63;44.36
7178;BME280;3630;42.146;24.756;2023-02-04T02:12:55;99222.44;;;6.67;44.96
7178;BME280;3630;42.146;24.756;2023-02-04T02:15:22;99221.50;;;6.65;44.75
7178;BME280;3630;42.146;24.756;2023-02-04T02:17:49;99227.56;;;6.69;45.38
7178;BME280;3630;42.146;24.756;2023-02-04T02:20:18;99221.50;;;6.65;44.93
7178;BME280;3630;42.146;24.756;2023-02-04T02:22:54;99217.34;;;6.69;45.05
7178;BME280;3630;42.146;24.756;2023-02-04T02:25:25;99209.66;;;6.67;44.77
7178;BME280;3630;42.146;24.756;2023-02-04T02:27:52;99207.06;;;6.66;44.73
7178;BME280;3630;42.146;24.756;2023-02-04T02:30:19;99200.25;;;6.65;44.79
7178;BME280;3630;42.146;24.756;2023-02-04T02:32:48;99204.47;;;6.64;45.25
7178;BME280;3630;42.146;24.756;2023-02-04T02:35:16;99205.28;;;6.63;45.65
7178;BME280;3630;42.146;24.756;2023-02-04T02:37:43;99205.81;;;6.51;45.99
7178;BME280;3630;42.146;24.756;2023-02-04T02:40:11;99199.03;;;6.52;45.75
7178;BME280;3630;42.146;24.756;2023-02-04T02:42:41;99184.41;;;6.46;46.37
7178;BME280;3630;42.146;24.756;2023-02-04T02:45:17;99172.59;;;6.50;46.43
7178;BME280;3630;42.146;24.756;2023-02-04T02:47:46;99174.28;;;6.49;46.02
7178;BME280;3630;42.146;24.756;2023-02-04T02:50:15;99164.88;;;6.48;46.47
7178;BME280;3630;42.146;24.756;2023-02-04T02:52:45;99141.34;;;6.27;46.98
7178;BME280;3630;42.146;24.756;2023-02-04T02:55:14;99166.38;;;6.40;46.66
7178;BME280;3630;42.146;24.756;2023-02-04T02:57:43;99161.19;;;6.37;46.49
7178;BME280;3630;42.146;24.756;2023-02-04T03:00:16;99158.72;;;6.40;46.76
7178;BME280;3630;42.146;24.756;2023-02-04T03:02:52;99152.00;;;6.42;46.49
7178;BME280;3630;42.146;24.756;2023-02-04T03:05:19;99142.72;;;6.46;46.68
7178;BME280;3630;42.146;24.756;2023-02-04T03:07:47;99141.94;;;6.48;46.33
7178;BME280;3630;42.146;24.756;2023-02-04T03:10:14;99134.25;;;6.47;46.45
7178;BME280;3630;42.146;24.756;2023-02-04T03:12:43;99126.25;;;6.35;47.08
7178;BME280;3630;42.146;24.756;2023-02-04T03:15:10;99128.88;;;6.36;46.89
7178;BME280;3630;42.146;24.756;2023-02-04T03:17:38;99133.06;;;6.34;48.17
7178;BME280;3630;42.146;24.756;2023-02-04T03:20:05;99125.19;;;6.27;47.09
7178;BME280;3630;42.146;24.756;2023-02-04T03:22:33;99126.06;;;6.27;47.93
7178;BME280;3630;42.146;24.756;2023-02-04T03:25:00;99126.03;;;6.26;47.68
7178;BME280;3630;42.146;24.756;2023-02-04T03:27:27;99113.09;;;6.20;47.15
7178;BME280;3630;42.146;24.756;2023-02-04T03:29:58;99137.31;;;6.35;46.76
7178;BME280;3630;42.146;24.756;2023-02-04T03:32:24;99130.53;;;6.36;46.90
7178;BME280;3630;42.146;24.756;2023-02-04T03:34:51;99127.91;;;6.33;47.26
7178;BME280;3630;42.146;24.756;2023-02-04T03:37:18;99122.59;;;6.25;47.42
7178;BME280;3630;42.146;24.756;2023-02-04T03:39:45;99125.16;;;6.25;48.02
7178;BME280;3630;42.146;24.756;2023-02-04T03:42:11;99125.34;;;6.33;47.21
7178;BME280;3630;42.146;24.756;2023-02-04T03:44:38;99118.66;;;6.36;47.84
7178;BME280;3630;42.146;24.756;2023-02-04T03:47:06;99104.16;;;6.35;47.56
7178;BME280;3630;42.146;24.756;2023-02-04T03:49:33;99110.22;;;6.39;47.25
7178;BME280;3630;42.146;24.756;2023-02-04T03:52:00;99101.78;;;6.43;47.85
7178;BME280;3630;42.146;24.756;2023-02-04T03:54:27;99094.84;;;6.37;48.17
7178;BME280;3630;42.146;24.756;2023-02-04T03:56:54;99076.94;;;6.34;47.50
7178;BME280;3630;42.146;24.756;2023-02-04T03:59:21;99069.19;;;6.31;47.73
7178;BME280;3630;42.146;24.756;2023-02-04T04:01:48;99082.97;;;6.38;47.41
7178;BME280;3630;42.146;24.756;2023-02-04T04:04:18;99075.38;;;6.39;47.01
7178;BME280;3630;42.146;24.756;2023-02-04T04:06:44;99081.47;;;6.46;47.84
7178;BME280;3630;42.146;24.756;2023-02-04T04:09:11;99064.44;;;6.45;47.79
7178;BME280;3630;42.146;24.756;2023-02-04T04:11:38;99052.13;;;6.29;48.44
7178;BME280;3630;42.146;24.756;2023-02-04T04:14:05;99065.81;;;6.32;47.78
7178;BME280;3630;42.146;24.756;2023-02-04T04:16:31;99061.56;;;6.31;48.16
7178;BME280;3630;42.146;24.756;2023-02-04T04:18:58;99060.63;;;6.29;48.38
7178;BME280;3630;42.146;24.756;2023-02-04T04:21:26;99057.00;;;6.20;47.92
7178;BME280;3630;42.146;24.756;2023-02-04T04:23:53;99049.28;;;6.18;48.78
7178;BME280;3630;42.146;24.756;2023-02-04T04:26:20;99049.00;;;6.08;48.79
7178;BME280;3630;42.146;24.756;2023-02-04T04:28:47;99054.25;;;6.14;48.31
7178;BME280;3630;42.146;24.756;2023-02-04T04:31:14;99059.28;;;6.11;48.30
7178;BME280;3630;42.146;24.756;2023-02-04T04:33:40;99052.41;;;6.08;49.33
7178;BME280;3630;42.146;24.756;2023-02-04T04:36:07;99055.59;;;6.00;49.34
7178;BME280;3630;42.146;24.756;2023-02-04T04:38:36;99059.91;;;6.02;48.89
7178;BME280;3630;42.146;24.756;2023-02-04T04:41:03;99063.22;;;6.00;49.54
7178;BME280;3630;42.146;24.756;2023-02-04T04:43:29;99068.50;;;6.06;48.75
7178;BME280;3630;42.146;24.756;2023-02-04T04:45:56;99041.06;;;5.97;49.34
7178;BME280;3630;42.146;24.756;2023-02-04T04:48:23;99034.38;;;6.01;49.38
7178;BME280;3630;42.146;24.756;2023-02-04T04:50:50;99020.56;;;5.92;49.12
7178;BME280;3630;42.146;24.756;2023-02-04T04:53:16;99035.38;;;6.07;48.65
7178;BME280;3630;42.146;24.756;2023-02-04T04:55:45;99036.16;;;6.05;49.05
7178;BME280;3630;42.146;24.756;2023-02-04T04:58:11;99024.44;;;6.11;49.62
7178;BME280;3630;42.146;24.756;2023-02-04T05:00:38;99020.03;;;6.04;49.99
7178;BME280;3630;42.146;24.756;2023-02-04T05:03:05;99029.53;;;6.10;49.09
7178;BME280;3630;42.146;24.756;2023-02-04T05:05:32;99034.63;;;6.10;49.59
7178;BME280;3630;42.146;24.756;2023-02-04T05:08:04;99021.97;;;6.14;49.73
7178;BME280;3630;42.146;24.756;2023-02-04T05:10:31;99032.09;;;6.11;48.49
7178;BME280;3630;42.146;24.756;2023-02-04T05:12:59;99035.53;;;6.12;48.83
7178;BME280;3630;42.146;24.756;2023-02-04T05:15:26;99029.44;;;6.07;49.23
7178;BME280;3630;42.146;24.756;2023-02-04T05:17:53;99033.63;;;6.05;49.81
7178;BME280;3630;42.146;24.756;2023-02-04T05:20:19;99032.00;;;6.07;49.73
7178;BME280;3630;42.146;24.756;2023-02-04T05:22:46;99033.69;;;6.06;49.58
7178;BME280;3630;42.146;24.756;2023-02-04T05:25:13;99024.19;;;6.02;49.39
7178;BME280;3630;42.146;24.756;2023-02-04T05:27:41;98982.56;;;5.72;49.63
7178;BME280;3630;42.146;24.756;2023-02-04T05:30:11;99017.41;;;6.03;50.09
7178;BME280;3630;42.146;24.756;2023-02-04T05:32:38;99022.53;;;6.03;49.13
7178;BME280;3630;42.146;24.756;2023-02-04T05:35:05;99007.09;;;5.98;49.23
7178;BME280;3630;42.146;24.756;2023-02-04T05:37:32;99014.94;;;6.04;50.12
7178;BME280;3630;42.146;24.756;2023-02-04T05:39:59;99019.28;;;6.08;49.96
7178;BME280;3630;42.146;24.756;2023-02-04T05:42:26;99021.13;;;6.14;48.70
7178;BME280;3630;42.146;24.756;2023-02-04T05:44:53;99012.50;;;6.10;48.90
7178;BME280;3630;42.146;24.756;2023-02-04T05:47:21;99019.31;;;6.10;48.99
7178;BME280;3630;42.146;24.756;2023-02-04T05:49:48;99032.88;;;6.09;49.39
7178;BME280;3630;42.146;24.756;2023-02-04T05:52:14;99018.38;;;6.06;48.73
7178;BME280;3630;42.146;24.756;2023-02-04T05:54:41;99025.19;;;6.07;48.05
7178;BME280;3630;42.146;24.756;2023-02-04T05:57:08;99016.72;;;6.08;48.25
7178;BME280;3630;42.146;24.756;2023-02-04T05:59:35;99025.25;;;6.10;48.38
7178;BME280;3630;42.146;24.756;2023-02-04T06:02:01;99025.25;;;6.10;48.09
7178;BME280;3630;42.146;24.756;2023-02-04T06:04:30;99010.72;;;6.06;48.01
7178;BME280;3630;42.146;24.756;2023-02-04T06:06:56;99029.72;;;6.17;48.57
7178;BME280;3630;42.146;24.756;2023-02-04T06:09:23;99038.38;;;6.24;48.39
7178;BME280;3630;42.146;24.756;2023-02-04T06:11:50;99034.03;;;6.20;47.72
7178;BME280;3630;42.146;24.756;2023-02-04T06:14:17;99038.34;;;6.22;47.16
7178;BME280;3630;42.146;24.756;2023-02-04T06:16:43;99037.56;;;6.25;47.27
7178;BME280;3630;42.146;24.756;2023-02-04T06:19:10;99024.88;;;6.28;47.29
7178;BME280;3630;42.146;24.756;2023-02-04T06:21:39;99019.72;;;6.25;47.18
7178;BME280;3630;42.146;24.756;2023-02-04T06:24:06;99010.56;;;6.33;47.89
7178;BME280;3630;42.146;24.756;2023-02-04T06:26:33;99033.78;;;6.43;47.65
7178;BME280;3630;42.146;24.756;2023-02-04T06:29:00;99039.06;;;6.51;47.09
7178;BME280;3630;42.146;24.756;2023-02-04T06:31:26;99029.06;;;6.59;47.33
7178;BME280;3630;42.146;24.756;2023-02-04T06:33:53;99041.91;;;6.62;46.94
7178;BME280;3630;42.146;24.756;2023-02-04T06:36:20;99043.50;;;6.58;47.16
7178;BME280;3630;42.146;24.756;2023-02-04T06:38:48;99045.28;;;6.61;46.57
7178;BME280;3630;42.146;24.756;2023-02-04T06:41:15;99036.97;;;6.69;47.24
7178;BME280;3630;42.146;24.756;2023-02-04T06:43:42;99034.44;;;6.69;46.28
7178;BME280;3630;42.146;24.756;2023-02-04T06:46:09;99053.25;;;6.74;46.62
7178;BME280;3630;42.146;24.756;2023-02-04T06:48:36;99029.59;;;6.81;46.60
7178;BME280;3630;42.146;24.756;2023-02-04T06:51:02;99047.66;;;6.89;46.72
7178;BME280;3630;42.146;24.756;2023-02-04T06:53:29;99050.28;;;6.92;46.53
7178;BME280;3630;42.146;24.756;2023-02-04T06:55:57;99052.97;;;6.98;46.54
7178;BME280;3630;42.146;24.756;2023-02-04T06:58:24;99058.06;;;6.98;46.37
7178;BME280;3630;42.146;24.756;2023-02-04T07:00:51;99052.97;;;6.98;46.15
7178;BME280;3630;42.146;24.756;2023-02-04T07:03:18;99046.00;;;6.89;46.86
7178;BME280;3630;42.146;24.756;2023-02-04T07:05:45;99059.97;;;7.05;47.10
7178;BME280;3630;42.146;24.756;2023-02-04T07:08:11;99066.84;;;7.09;46.90
7178;BME280;3630;42.146;24.756;2023-02-04T07:10:38;99073.00;;;7.17;46.98
7178;BME280;3630;42.146;24.756;2023-02-04T07:13:06;99074.88;;;7.24;46.52
7178;BME280;3630;42.146;24.756;2023-02-04T07:15:33;99069.06;;;7.31;46.99
7178;BME280;3630;42.146;24.756;2023-02-04T07:18:00;99071.75;;;7.36;46.53
7178;BME280;3630;42.146;24.756;2023-02-04T07:20:27;99073.59;;;7.43;46.91
7178;BME280;3630;42.146;24.756;2023-02-04T07:22:53;99071.97;;;7.48;46.40
7178;BME280;3630;42.146;24.756;2023-02-04T07:25:20;99073.66;;;7.47;46.90
7178;BME280;3630;42.146;24.756;2023-02-04T07:27:48;99065.19;;;7.48;46.88
7178;BME280;3630;42.146;24.756;2023-02-04T07:30:16;99040.34;;;7.43;47.23
7178;BME280;3630;42.146;24.756;2023-02-04T07:32:43;99064.66;;;7.63;47.69
7178;BME280;3630;42.146;24.756;2023-02-04T07:35:10;99058.00;;;7.71;47.97
7178;BME280;3630;42.146;24.756;2023-02-04T07:37:37;99026.91;;;7.51;48.51
7178;BME280;3630;42.146;24.756;2023-02-04T07:40:04;99064.53;;;7.57;49.02
7178;BME280;3630;42.146;24.756;2023-02-04T07:42:31;99066.13;;;7.52;49.94
7178;BME280;3630;42.146;24.756;2023-02-04T07:44:58;99049.72;;;7.42;50.33
7178;BME280;3630;42.146;24.756;2023-02-04T07:47:26;99055.56;;;7.37;51.42
7178;BME280;3630;42.146;24.756;2023-02-04T07:49:53;99044.59;;;7.41;51.44
7178;BME280;3630;42.146;24.756;2023-02-04T07:52:21;99043.13;;;7.52;52.08
7178;BME280;3630;42.146;24.756;2023-02-04T07:54:48;99018.47;;;7.55;52.33
7178;BME280;3630;42.146;24.756;2023-02-04T07:57:16;98989.59;;;7.59;51.68
7178;BME280;3630;42.146;24.756;2023-02-04T07:59:43;99014.06;;;7.92;51.87
7178;BME280;3630;42.146;24.756;2023-02-04T08:02:10;99006.66;;;8.05;51.31
7178;BME280;3630;42.146;24.756;2023-02-04T08:04:38;99002.72;;;8.22;50.86
7178;BME280;3630;42.146;24.756;2023-02-04T08:07:05;99003.53;;;8.21;51.12
7178;BME280;3630;42.146;24.756;2023-02-04T08:09:32;99000.13;;;8.21;50.91
7178;BME280;3630;42.146;24.756;2023-02-04T08:11:59;98999.22;;;8.17;51.47
7178;BME280;3630;42.146;24.756;2023-02-04T08:14:26;99000.19;;;8.24;51.23
7178;BME280;3630;42.146;24.756;2023-02-04T08:16:52;99000.34;;;8.32;51.52
7178;BME280;3630;42.146;24.756;2023-02-04T08:19:19;98981.69;;;8.39;51.36
7178;BME280;3630;42.146;24.756;2023-02-04T08:21:48;98979.28;;;8.49;51.42
7178;BME280;3630;42.146;24.756;2023-02-04T08:24:15;98984.56;;;8.58;51.49
7178;BME280;3630;42.146;24.756;2023-02-04T08:26:43;98971.06;;;8.67;51.30
7178;BME280;3630;42.146;24.756;2023-02-04T08:29:10;98966.91;;;8.75;51.18
7178;BME280;3630;42.146;24.756;2023-02-04T08:31:37;98967.81;;;8.78;50.91
7178;BME280;3630;42.146;24.756;2023-02-04T08:34:04;98950.72;;;8.77;50.50
7178;BME280;3630;42.146;24.756;2023-02-04T08:36:31;98961.13;;;8.88;50.35
7178;BME280;3630;42.146;24.756;2023-02-04T08:39:00;98939.03;;;8.95;50.04
7178;BME280;3630;42.146;24.756;2023-02-04T08:41:27;98956.19;;;9.02;49.66
7178;BME280;3630;42.146;24.756;2023-02-04T08:43:54;98942.69;;;9.15;48.54
7178;BME280;3630;42.146;24.756;2023-02-04T08:46:20;98971.00;;;9.22;47.14
7178;BME280;3630;42.146;24.756;2023-02-04T08:48:47;98954.06;;;9.35;45.92
7178;BME280;3630;42.146;24.756;2023-02-04T08:51:14;98944.75;;;9.43;45.73
7178;BME280;3630;42.146;24.756;2023-02-04T08:53:41;98956.88;;;9.53;44.94
7178;BME280;3630;42.146;24.756;2023-02-04T08:56:09;98962.91;;;9.58;44.50
7178;BME280;3630;42.146;24.756;2023-02-04T08:58:41;98960.44;;;9.70;43.87
7178;BME280;3630;42.146;24.756;2023-02-04T09:01:07;98981.00;;;9.73;43.80
7178;BME280;3630;42.146;24.756;2023-02-04T09:03:35;98961.34;;;9.72;43.43
7178;BME280;3630;42.146;24.756;2023-02-04T09:06:03;98952.78;;;9.73;43.62
7178;BME280;3630;42.146;24.756;2023-02-04T09:08:30;98964.91;;;9.86;43.20
7178;BME280;3630;42.146;24.756;2023-02-04T09:10:57;98967.59;;;9.97;43.05
7178;BME280;3630;42.146;24.756;2023-02-04T09:13:25;98960.94;;;10.13;42.48
7178;BME280;3630;42.146;24.756;2023-02-04T09:15:52;98963.63;;;10.26;42.38
7178;BME280;3630;42.146;24.756;2023-02-04T09:18:19;98960.38;;;10.50;42.14
7178;BME280;3630;42.146;24.756;2023-02-04T09:20:47;98946.84;;;10.71;41.32
7178;BME280;3630;42.146;24.756;2023-02-04T09:23:15;98934.88;;;10.74;41.01
7178;BME280;3630;42.146;24.756;2023-02-04T09:25:42;98944.22;;;10.60;40.94
7178;BME280;3630;42.146;24.756;2023-02-04T09:28:10;98892.75;;;10.48;41.02
7178;BME280;3630;42.146;24.756;2023-02-04T09:30:40;98915.25;;;10.82;40.83
7178;BME280;3630;42.146;24.756;2023-02-04T09:33:08;98924.72;;;10.97;40.48
7178;BME280;3630;42.146;24.756;2023-02-04T09:35:35;98921.38;;;11.10;39.87
7178;BME280;3630;42.146;24.756;2023-02-04T09:38:02;98910.31;;;11.24;40.00
7178;BME280;3630;42.146;24.756;2023-02-04T09:40:32;98915.50;;;11.34;40.01
7178;BME280;3630;42.146;24.756;2023-02-04T09:43:01;98908.63;;;11.36;39.82
7178;BME280;3630;42.146;24.756;2023-02-04T09:45:30;98912.94;;;11.37;39.84
7178;BME280;3630;42.146;24.756;2023-02-04T09:48:02;98899.13;;;11.12;39.89
7178;BME280;3630;42.146;24.756;2023-02-04T09:50:30;98915.44;;;11.21;39.79
7178;BME280;3630;42.146;24.756;2023-02-04T09:53:00;98895.72;;;11.26;39.83
7178;BME280;3630;42.146;24.756;2023-02-04T09:55:31;98888.84;;;11.21;40.12
7178;BME280;3630;42.146;24.756;2023-02-04T09:57:58;98903.44;;;11.26;39.89
7178;BME280;3630;42.146;24.756;2023-02-04T10:00:28;98899.13;;;11.18;39.99
7178;BME280;3630;42.146;24.756;2023-02-04T10:02:56;98892.19;;;10.97;40.24
7178;BME280;3630;42.146;24.756;2023-02-04T10:05:29;98896.44;;;10.89;40.92
7178;BME280;3630;42.146;24.756;2023-02-04T10:07:57;98886.13;;;10.86;40.57
7178;BME280;3630;42.146;24.756;2023-02-04T10:10:25;98884.44;;;10.87;41.02
7178;BME280;3630;42.146;24.756;2023-02-04T10:12:56;98889.59;;;10.91;41.10
7178;BME280;3630;42.146;24.756;2023-02-04T10:15:25;98869.06;;;10.96;40.88
7178;BME280;3630;42.146;24.756;2023-02-04T10:17:54;98875.03;;;10.93;40.39
7178;BME280;3630;42.146;24.756;2023-02-04T10:20:23;98876.75;;;10.93;40.53
7178;BME280;3630;42.146;24.756;2023-02-04T10:22:53;98867.34;;;10.99;40.31
7178;BME280;3630;42.146;24.756;2023-02-04T10:25:23;98875.03;;;10.92;40.44
7178;BME280;3630;42.146;24.756;2023-02-04T10:27:51;98872.41;;;10.81;40.69
7178;BME280;3630;42.146;24.756;2023-02-04T10:30:20;98880.06;;;10.72;40.93
7178;BME280;3630;42.146;24.756;2023-02-04T10:32:48;98886.03;;;10.70;41.17
7178;BME280;3630;42.146;24.756;2023-02-04T10:35:17;98875.78;;;10.68;41.50
7178;BME280;3630;42.146;24.756;2023-02-04T10:37:45;98865.50;;;10.73;41.66
7178;BME280;3630;42.146;24.756;2023-02-04T10:40:28;98863.69;;;10.56;41.93
7178;BME280;3630;42.146;24.756;2023-02-04T10:42:55;98855.06;;;10.47;41.91
7178;BME280;3630;42.146;24.756;2023-02-04T10:45:24;98850.03;;;10.57;42.17
7178;BME280;3630;42.146;24.756;2023-02-04T10:47:52;98846.59;;;10.57;42.32
7178;BME280;3630;42.146;24.756;2023-02-04T10:50:21;98840.50;;;10.43;42.22
7178;BME280;3630;42.146;24.756;2023-02-04T10:52:51;98838.75;;;10.37;42.70
7178;BME280;3630;42.146;24.756;2023-02-04T10:55:21;98824.22;;;10.38;42.69
7178;BME280;3630;42.146;24.756;2023-02-04T10:57:51;98831.00;;;10.30;42.94
7178;BME280;3630;42.146;24.756;2023-02-04T11:00:19;98828.44;;;10.30;43.15
7178;BME280;3630;42.146;24.756;2023-02-04T11:02:57;98821.56;;;10.30;43.65
7178;BME280;3630;42.146;24.756;2023-02-04T11:05:29;98836.22;;;10.42;43.51
7178;BME280;3630;42.146;24.756;2023-02-04T11:07:56;98820.75;;;10.30;43.21
7178;BME280;3630;42.146;24.756;2023-02-04T11:10:27;98819.88;;;10.29;43.93
7178;BME280;3630;42.146;24.756;2023-02-04T11:13:02;98815.59;;;10.30;43.85
7178;BME280;3630;42.146;24.756;2023-02-04T11:15:42;98803.66;;;10.36;43.88
7178;BME280;3630;42.146;24.756;2023-02-04T11:18:12;98811.38;;;10.38;43.93
7178;BME280;3630;42.146;24.756;2023-02-04T11:20:39;98804.53;;;10.41;43.89
7178;BME280;3630;42.146;24.756;2023-02-04T11:23:14;98810.53;;;10.40;44.26
7178;BME280;3630;42.146;24.756;2023-02-04T11:25:42;98807.13;;;10.43;44.34
7178;BME280;3630;42.146;24.756;2023-02-04T11:28:24;98811.44;;;10.50;44.54
7178;BME280;3630;42.146;24.756;2023-02-04T11:30:58;98805.47;;;10.54;44.69
7178;BME280;3630;42.146;24.756;2023-02-04T11:33:36;98809.75;;;10.55;44.95
7178;BME280;3630;42.146;24.756;2023-02-04T11:36:05;98805.44;;;10.49;44.90
7178;BME280;3630;42.146;24.756;2023-02-04T11:38:34;98798.59;;;10.53;45.18
7178;BME280;3630;42.146;24.756;2023-02-04T11:41:01;98791.78;;;10.52;44.90
7178;BME280;3630;42.146;24.756;2023-02-04T11:43:32;98796.03;;;10.51;44.79
7178;BME280;3630;42.146;24.756;2023-02-04T11:46:01;98795.16;;;10.49;44.27
7178;BME280;3630;42.146;24.756;2023-02-04T11:48:29;98790.97;;;10.62;44.38
7178;BME280;3630;42.146;24.756;2023-02-04T11:50:59;98681.09;;;10.08;43.93
7178;BME280;3630;42.146;24.756;2023-02-04T11:53:28;98785.81;;;10.63;44.14
7178;BME280;3630;42.146;24.756;2023-02-04T11:55:55;98784.97;;;10.60;44.77
7178;BME280;3630;42.146;24.756;2023-02-04T11:58:22;98766.13;;;10.68;44.58
7178;BME280;3630;42.146;24.756;2023-02-04T12:00:52;98765.31;;;10.77;44.60
7178;BME280;3630;42.146;24.756;2023-02-04T12:03:22;98766.22;;;10.84;44.98
7178;BME280;3630;42.146;24.756;2023-02-04T12:05:49;98773.03;;;10.77;45.57
7178;BME280;3630;42.146;24.756;2023-02-04T12:08:25;98775.59;;;10.77;44.69
7178;BME280;3630;42.146;24.756;2023-02-04T12:11:03;98754.13;;;10.66;44.98
7178;BME280;3630;42.146;24.756;2023-02-04T12:13:32;98769.59;;;10.72;45.49
7178;BME280;3630;42.146;24.756;2023-02-04T12:16:02;98775.63;;;10.79;45.57
7178;BME280;3630;42.146;24.756;2023-02-04T12:18:31;98769.59;;;10.72;46.96
7178;BME280;3630;42.146;24.756;2023-02-04T12:20:59;98761.88;;;10.68;47.81
7178;BME280;3630;42.146;24.756;2023-02-04T12:23:28;98766.97;;;10.63;48.15
7178;BME280;3630;42.146;24.756;2023-02-04T12:25:55;98770.38;;;10.54;48.92
7178;BME280;3630;42.146;24.756;2023-02-04T12:28:22;98750.66;;;10.55;49.09
7178;BME280;3630;42.146;24.756;2023-02-04T12:30:49;98771.25;;;10.61;49.09
7178;BME280;3630;42.146;24.756;2023-02-04T12:33:17;98770.41;;;10.59;49.18
7178;BME280;3630;42.146;24.756;2023-02-04T12:35:44;98766.94;;;10.51;49.45
7178;BME280;3630;42.146;24.756;2023-02-04T12:38:11;98777.16;;;10.45;49.45
7178;BME280;3630;42.146;24.756;2023-02-04T12:40:38;98780.59;;;10.47;49.77
7178;BME280;3630;42.146;24.756;2023-02-04T12:43:05;98774.59;;;10.43;49.63
7178;BME280;3630;42.146;24.756;2023-02-04T12:45:32;98782.25;;;10.34;49.93
7178;BME280;3630;42.146;24.756;2023-02-04T12:47:59;98787.34;;;10.28;50.42
7178;BME280;3630;42.146;24.756;2023-02-04T12:50:27;98780.38;;;10.12;50.16
7178;BME280;3630;42.146;24.756;2023-02-04T12:52:55;98779.47;;;10.02;50.62
7178;BME280;3630;42.146;24.756;2023-02-04T12:55:24;98779.38;;;9.93;50.28
7178;BME280;3630;42.146;24.756;2023-02-04T12:57:52;98792.22;;;9.95;49.93
7178;BME280;3630;42.146;24.756;2023-02-04T13:00:21;98784.38;;;9.77;50.55
7178;BME280;3630;42.146;24.756;2023-02-04T13:02:48;98802.44;;;9.89;50.50
7178;BME280;3630;42.146;24.756;2023-02-04T13:05:17;98798.19;;;9.92;50.44
7178;BME280;3630;42.146;24.756;2023-02-04T13:07:45;98797.31;;;9.90;49.63
7178;BME280;3630;42.146;24.756;2023-02-04T13:10:13;98798.22;;;9.94;48.62
7178;BME280;3630;42.146;24.756;2023-02-04T13:12:39;98804.19;;;9.93;48.65
7178;BME280;3630;42.146;24.756;2023-02-04T13:15:07;98811.94;;;10.00;48.78
7178;BME280;3630;42.146;24.756;2023-02-04T13:17:34;98805.13;;;10.02;49.28
7178;BME280;3630;42.146;24.756;2023-02-04T13:20:02;98810.19;;;9.95;49.70
7178;BME280;3630;42.146;24.756;2023-02-04T13:22:29;98810.25;;;10.05;50.21